• Join FlightAware (Why Join?)
  • Login
  • US Flag 
11:48AM EDT


 

Airport Tracker/Info


-or-


 

Live Flight TrackerFlight Track Log ✈ UAL3272 ✈ 06-Apr-2013 ✈ CYYZ - KCLE

Flight Track Log - Related Links

Times and Time Zones

All times are in EDT time to prevent confusion due to time zone crossing. See the UAL3272 flight status page for this flight to view local times or setup timezone preferences in your user account.

Time Position Orientation Groundspeed Altitude Reporting Facility
EDT Latitude Longitude Course Direction KTS MPH feet Rate Location/Type
06:57AM 43.6333 -79.7000 186° South 190 219 3,600  Level Toronto Center
06:58AM 43.5833 -79.7333 206° Southwest 250 288 6,000 2,640 Climbing Toronto Center
06:59AM 43.5000 -79.7167 172° South 270 311 8,900 2,520 Climbing Toronto Center
07:00AM 43.4167 -79.7167 180° South 310 357 11,100 1,740 Climbing Toronto Center
07:01AM 43.3167 -79.7667 200° South 350 403 12,400 1,500 Climbing Toronto Center
07:02AM 43.2167 -79.8000 194° South 380 437 14,100 1,740 Climbing Toronto Center
07:03AM 43.0535 -79.7400 186° South  Level FlightAware Approximate
07:03AM 43.1167 -79.8333 194° South 380 437 15,900  Level Toronto Center
07:04AM 43.0167 -79.8833 200° South 390 449 17,500 1,020 Climbing Toronto Center
07:05AM 42.9000 -79.9333 197° South 400 460 18,000 300 Climbing Toronto Center
07:06AM 42.8733 -79.9628 219° Southwest 403 464 18,000  Level Cleveland Center
07:07AM 42.7589 -80.0147 198° South 425 489 18,000  Level Cleveland Center
07:08AM 42.6444 -80.0553 195° South 430 495 18,000  Level Cleveland Center
07:09AM 42.5322 -80.0986 196° South 430 495 18,000  Level Cleveland Center
07:10AM 42.4197 -80.1417 196° South 430 495 18,000  Level Cleveland Center
07:11AM 42.3075 -80.1872 197° South 430 495 18,000  Level Cleveland Center
07:12AM 42.2200 -80.2775 217° Southwest 401 461 18,000  Level Cleveland Center
07:13AM 42.1392 -80.3817 224° Southwest 406 467 18,000  Level Cleveland Center
07:14AM 42.0578 -80.4825 223° Southwest 406 467 18,000 -60 Level Cleveland Center
07:15AM 41.9869 -80.5775 225° Southwest 401 461 17,900 -420 Descending Cleveland Center
07:16AM 41.9078 -80.6753 223° Southwest 393 452 17,200 -900 Descending Cleveland Center
07:17AM 41.8264 -80.7753 222° Southwest 393 452 16,200 -1,020 Descending Cleveland Center
07:18AM 41.7469 -80.8669 221° Southwest 393 452 15,200 -1,260 Descending Cleveland Center
07:19AM 41.6489 -80.9194 202° Southwest 383 441 13,700 -1,620 Descending Cleveland Center
07:20AM 41.5569 -80.9800 206° Southwest 383 441 12,000 -1,800 Descending Cleveland Center
07:20AM 41.5400 -81.0269 244° Southwest 335 386 11,400 -1,500 Descending Cleveland Center
07:21AM 41.5272 -81.1044 258° West 310 357 10,500 -960 Descending Cleveland Center
07:22AM 41.5122 -81.1903 257° West 310 357 10,000 -300 Descending Cleveland Center
07:23AM 41.4969 -81.3094 260° West 321 369 10,000  Level Cleveland Center
07:23AM 41.4883 -81.3703 259° West 288 331 10,000  Level Cleveland Center
07:24AM 41.4817 -81.4286 261° West 293 337 10,000  Level Cleveland Center
07:24AM 41.4750 -81.4644 256° West 247 284 10,000 -540 Level Cleveland Center
07:25AM 41.4683 -81.5197 261° West 264 304 9,500 -900 Descending Cleveland Center
07:25AM 41.4639 -81.5614 262° West 252 290 9,100 -600 Descending Cleveland Center
07:26AM 41.4467 -81.6053 242° Southwest 247 284 8,900 -120 Descending Cleveland Center
07:26AM 41.4319 -81.6356 237° Southwest 203 234 9,000 60 Climbing Cleveland Center
07:27AM 41.4169 -81.6686 239° Southwest 221 254 9,000 -420 Level Cleveland Center
07:27AM 41.4022 -81.6986 237° Southwest 199 229 8,600 -900 Descending Cleveland Center
07:28AM 41.3892 -81.7289 240° Southwest 200 230 8,100 -1,020 Descending Cleveland Center
07:28AM 41.3703 -81.7536 224° Southwest 201 231 7,600 -1,020 Descending Cleveland Center
07:29AM 41.3492 -81.7808 224° Southwest 194 223 7,100 -1,020 Descending Cleveland Center
07:29AM 41.3300 -81.8108 230° Southwest 204 235 6,600 -1,020 Descending Cleveland Center
07:30AM 41.3131 -81.8353 227° Southwest 200 230 6,100 -1,320 Descending Cleveland Center
07:30AM 41.2961 -81.8656 233° Southwest 196 226 5,300 -1,380 Descending Cleveland Center
07:31AM 41.2869 -81.9372 260° West 197 227 4,000 -1,260 Descending Cleveland Center
07:32AM 41.3303 -81.9767 326° Northwest 189 217 2,800 -900 Descending Cleveland Center
07:33AM 41.3556 -81.9442 44° Northeast 101 116 2,200 -660 Descending Cleveland Center
07:34AM 41.3769 -81.9086 51° Northeast 112 129 1,500 -720 Descending Cleveland Center